createdAt,value
2023-01-12T00:03:12.383Z,2.13
2023-01-12T00:08:14.071Z,2.22
2023-01-12T00:13:15.770Z,1.88
2023-01-12T00:18:17.777Z,2.03
2023-01-12T00:23:19.921Z,2.08
2023-01-12T00:28:21.643Z,1.90
2023-01-12T00:33:23.365Z,2.28
2023-01-12T00:38:25.949Z,1.75
2023-01-12T00:43:46.315Z,2.00
2023-01-12T00:48:48.084Z,1.80
2023-01-12T00:53:49.832Z,1.63
2023-01-12T00:58:51.553Z,1.70
2023-01-12T01:03:54.158Z,1.80
2023-01-12T01:08:55.939Z,1.65
2023-01-12T01:13:59.198Z,1.42
2023-01-12T01:19:01.309Z,1.63
2023-01-12T01:24:03.551Z,1.40
2023-01-12T01:29:05.281Z,1.65
2023-01-12T01:34:06.988Z,1.50
2023-01-12T01:39:08.730Z,1.40
2023-01-12T01:44:29.464Z,1.38
2023-01-12T01:49:46.059Z,1.40
2023-01-12T01:54:56.291Z,1.45
2023-01-12T01:59:58.681Z,1.60
2023-01-12T02:05:00.974Z,1.60
2023-01-12T02:10:03.771Z,1.13
2023-01-12T02:15:24.373Z,1.58
2023-01-12T02:21:05.205Z,1.40
2023-01-12T02:26:28.832Z,1.00
2023-01-12T02:31:40.470Z,1.15
2023-01-12T02:37:05.431Z,1.50
2023-01-12T02:42:39.952Z,1.10
2023-01-12T02:47:55.449Z,1.23
2023-01-12T02:53:04.699Z,1.30
2023-01-12T02:58:11.129Z,1.10
2023-01-12T03:03:13.110Z,1.10
2023-01-12T03:08:23.690Z,1.45
2023-01-12T03:13:28.724Z,1.13
2023-01-12T03:18:41.478Z,1.48
2023-01-12T03:23:46.081Z,1.85
2023-01-12T03:28:54.132Z,1.02
2023-01-12T03:33:56.021Z,1.58
2023-01-12T03:39:42.143Z,1.30
2023-01-12T03:45:06.590Z,1.40
2023-01-12T03:50:16.487Z,1.35
2023-01-12T03:55:22.778Z,1.00
2023-01-12T04:00:27.048Z,1.23
2023-01-12T04:05:28.794Z,1.67
2023-01-12T04:10:30.713Z,1.40
2023-01-12T04:15:36.192Z,1.42
2023-01-12T04:20:38.814Z,2.05
2023-01-12T04:25:41.601Z,1.45
2023-01-12T04:30:43.318Z,1.35
2023-01-12T04:35:47.388Z,1.20
2023-01-12T04:40:56.565Z,1.10
2023-01-12T04:45:58.331Z,1.20
2023-01-12T04:51:01.172Z,1.40
2023-01-12T04:56:07.377Z,1.67
2023-01-12T05:01:18.028Z,1.30
2023-01-12T05:06:19.869Z,1.10
2023-01-12T05:11:25.364Z,1.30
2023-01-12T05:16:27.502Z,1.30
2023-01-12T05:21:30.539Z,1.75
2023-01-12T05:26:32.276Z,1.42
2023-01-12T05:31:35.038Z,1.70
2023-01-12T05:36:36.738Z,1.50
2023-01-12T05:41:58.499Z,1.30
2023-01-12T05:47:00.153Z,1.23
2023-01-12T05:52:02.037Z,1.52
2023-01-12T05:57:03.863Z,1.45
2023-01-12T06:02:05.651Z,1.20
2023-01-12T06:07:07.365Z,1.35
2023-01-12T06:12:30.319Z,1.50
2023-01-12T06:17:32.049Z,1.17
2023-01-12T06:22:33.783Z,1.55
2023-01-12T06:27:35.980Z,1.45
2023-01-12T06:32:38.927Z,1.10
2023-01-12T06:37:40.760Z,1.20
2023-01-12T06:42:42.805Z,1.42
2023-01-12T06:47:49.522Z,1.40
2023-01-12T06:52:52.291Z,1.33
2023-01-12T06:57:54.105Z,1.38
2023-01-12T07:02:55.866Z,1.02
2023-01-12T07:08:00.242Z,1.10
2023-01-12T07:13:01.940Z,1.33
2023-01-12T07:18:03.896Z,2.05
2023-01-12T07:23:05.738Z,1.05
2023-01-12T07:28:08.411Z,1.55
2023-01-12T07:33:12.930Z,1.50
2023-01-12T07:38:14.632Z,1.80
2023-01-12T07:43:19.034Z,1.83
2023-01-12T07:48:21.227Z,1.73
2023-01-12T07:53:23.826Z,1.30
2023-01-12T07:58:27.582Z,1.85
2023-01-12T08:03:29.282Z,1.40
2023-01-12T08:08:31.064Z,1.30
2023-01-12T08:13:33.549Z,1.80
2023-01-12T08:19:03.701Z,1.40
2023-01-12T08:24:06.636Z,1.60
2023-01-12T08:29:13.148Z,1.30
2023-01-12T08:34:15.152Z,1.50
2023-01-12T08:39:16.871Z,1.65
2023-01-12T08:44:19.377Z,1.45
2023-01-12T08:49:25.483Z,1.48
2023-01-12T08:54:27.258Z,1.23
2023-01-12T08:59:28.945Z,1.30
2023-01-12T09:04:30.725Z,1.30
2023-01-12T09:09:32.574Z,1.60
2023-01-12T09:14:38.568Z,1.70
2023-01-12T09:19:40.407Z,1.10
2023-01-12T09:24:42.132Z,1.30
2023-01-12T09:29:43.816Z,1.98
2023-01-12T09:34:48.363Z,1.63
2023-01-12T09:39:50.116Z,1.23
2023-01-12T09:45:28.132Z,4.18
2023-01-12T09:50:39.362Z,1.17
2023-01-12T09:55:43.832Z,1.23
2023-01-12T10:00:51.199Z,1.25
2023-01-12T10:05:55.273Z,1.40
2023-01-12T10:11:25.447Z,1.27
2023-01-12T10:17:02.359Z,1.45
2023-01-12T10:22:37.070Z,1.40
2023-01-12T10:27:42.617Z,1.17
2023-01-12T10:32:44.827Z,1.52
2023-01-12T10:37:55.571Z,1.20
2023-01-12T10:43:31.825Z,1.05
2023-01-12T10:48:33.884Z,0.93
2023-01-12T10:53:38.132Z,0.73
2023-01-12T10:58:41.841Z,0.60
2023-01-12T11:03:43.584Z,0.75
2023-01-12T11:08:45.288Z,1.08
2023-01-12T11:13:47.066Z,0.50
2023-01-12T11:19:14.677Z,0.80
2023-01-12T11:24:35.676Z,0.60
2023-01-12T11:30:00.519Z,0.70
2023-01-12T11:35:47.586Z,0.68
2023-01-12T11:40:49.756Z,0.65
2023-01-12T11:46:02.228Z,0.50
2023-01-12T11:51:04.863Z,0.47
2023-01-12T11:56:47.659Z,0.47
2023-01-12T12:02:23.769Z,0.55
2023-01-12T12:07:25.470Z,0.90
2023-01-12T12:12:55.662Z,0.77
2023-01-12T12:18:06.337Z,0.50
2023-01-12T12:23:29.375Z,0.70
2023-01-12T12:28:43.667Z,0.47
2023-01-12T12:33:58.435Z,0.77
2023-01-12T12:39:21.691Z,0.80
2023-01-12T12:44:57.139Z,0.70
2023-01-12T12:50:01.107Z,0.65
2023-01-12T12:55:05.032Z,0.60
2023-01-12T13:00:40.387Z,0.40
2023-01-12T13:05:45.236Z,0.50
2023-01-12T13:10:56.151Z,0.70
2023-01-12T13:16:18.993Z,0.60
2023-01-12T13:21:26.914Z,0.50
2023-01-12T13:26:37.989Z,0.60
2023-01-12T13:31:39.824Z,0.30
2023-01-12T13:36:43.449Z,0.50
2023-01-12T13:42:04.808Z,0.50
2023-01-12T13:47:16.417Z,0.35
2023-01-12T13:52:34.119Z,0.50
2023-01-12T13:57:37.169Z,0.45
2023-01-12T14:02:40.557Z,0.50
2023-01-12T14:07:57.700Z,0.60
2023-01-12T14:13:14.126Z,0.70
2023-01-12T14:18:19.675Z,0.60
2023-01-12T14:23:26.220Z,0.88
2023-01-12T14:28:28.675Z,0.43
2023-01-12T14:33:33.405Z,0.90
2023-01-12T14:38:40.462Z,0.68
2023-01-12T14:44:01.808Z,0.60
2023-01-12T14:49:21.439Z,0.50
2023-01-12T14:54:31.615Z,1.10
2023-01-12T14:59:43.593Z,0.50
2023-01-12T15:04:56.641Z,0.50
2023-01-12T15:10:01.875Z,0.70
2023-01-12T15:15:15.618Z,0.63
2023-01-12T15:20:49.712Z,0.50
2023-01-12T15:25:51.422Z,0.80
2023-01-12T15:30:55.632Z,0.60
2023-01-12T15:35:58.427Z,0.60
2023-01-12T15:41:00.261Z,0.60
2023-01-12T15:46:02.100Z,0.57
2023-01-12T15:51:04.052Z,0.73
2023-01-12T15:56:09.390Z,0.60
2023-01-12T16:01:16.340Z,0.60
2023-01-12T16:06:18.098Z,0.50
2023-01-12T16:11:22.586Z,0.60
2023-01-12T16:16:26.444Z,0.90
2023-01-12T16:21:28.847Z,0.75
2023-01-12T16:26:30.717Z,0.77
2023-01-12T16:31:32.666Z,0.50
2023-01-12T16:36:34.587Z,0.60
2023-01-12T16:41:36.372Z,0.60
2023-01-12T16:46:38.083Z,0.60
2023-01-12T16:51:39.941Z,0.60
2023-01-12T16:56:42.531Z,0.50
2023-01-12T17:01:44.787Z,0.60
2023-01-12T17:06:47.730Z,0.60
2023-01-12T17:11:50.410Z,0.50
2023-01-12T17:16:58.548Z,0.60
2023-01-12T17:22:02.148Z,0.43
2023-01-12T17:27:04.184Z,0.57
2023-01-12T17:32:07.668Z,0.65
2023-01-12T17:37:10.586Z,0.60
2023-01-12T17:42:32.747Z,0.50
2023-01-12T17:47:34.416Z,0.60
2023-01-12T17:52:36.455Z,0.70
2023-01-12T17:57:38.416Z,0.60
2023-01-12T18:02:43.762Z,0.55
2023-01-12T18:07:45.569Z,0.77
2023-01-12T18:12:47.380Z,0.70
2023-01-12T18:17:49.227Z,0.60
2023-01-12T18:22:55.026Z,0.90
2023-01-12T18:27:56.703Z,0.90
2023-01-12T18:32:58.441Z,0.68
2023-01-12T18:38:00.127Z,0.60
2023-01-12T18:43:01.820Z,0.80
2023-01-12T18:48:23.586Z,0.70
2023-01-12T18:53:25.777Z,0.52
2023-01-12T18:58:30.582Z,0.60
2023-01-12T19:03:32.686Z,0.80
2023-01-12T19:08:52.770Z,1.50
2023-01-12T19:14:13.109Z,0.80
2023-01-12T19:19:14.958Z,0.60
2023-01-12T19:24:35.072Z,0.70
2023-01-12T19:29:38.272Z,0.47
2023-01-12T19:34:41.160Z,0.40
2023-01-12T19:40:00.746Z,0.50
2023-01-12T19:45:07.179Z,0.55
2023-01-12T19:50:11.993Z,0.80
2023-01-12T19:55:14.856Z,0.55
2023-01-12T20:00:17.494Z,0.60
2023-01-12T20:05:22.832Z,0.80
2023-01-12T20:10:24.836Z,0.70
2023-01-12T20:15:27.024Z,1.27
2023-01-12T20:20:29.065Z,0.70
2023-01-12T20:25:31.061Z,0.77
2023-01-12T20:30:37.829Z,0.60
2023-01-12T20:35:46.341Z,0.70
2023-01-12T20:40:48.271Z,0.68
2023-01-12T20:45:50.497Z,0.70
2023-01-12T20:50:53.398Z,0.60
2023-01-12T20:55:55.107Z,0.60
2023-01-12T21:01:00.234Z,0.70
2023-01-12T21:06:02.033Z,0.50
2023-01-12T21:11:03.934Z,0.52
2023-01-12T21:16:07.893Z,0.55
2023-01-12T21:21:10.610Z,0.50
2023-01-12T21:26:12.423Z,0.70
2023-01-12T21:31:14.359Z,0.70
2023-01-12T21:36:18.240Z,0.80
2023-01-12T21:41:21.983Z,0.70
2023-01-12T21:46:23.959Z,0.50
2023-01-12T21:51:25.789Z,0.43
2023-01-12T21:56:27.573Z,0.40
2023-01-12T22:01:29.475Z,0.50
2023-01-12T22:06:32.119Z,0.40
2023-01-12T22:11:34.092Z,0.50
2023-01-12T22:16:36.202Z,0.45
2023-01-12T22:21:38.247Z,0.60
2023-01-12T22:26:40.138Z,0.50
2023-01-12T22:31:41.986Z,0.52
2023-01-12T22:36:44.515Z,0.50
2023-01-12T22:41:47.386Z,0.40
2023-01-12T22:46:50.484Z,0.40
2023-01-12T22:51:52.183Z,0.60
2023-01-12T22:56:54.483Z,0.40
2023-01-12T23:02:16.440Z,0.50
2023-01-12T23:07:19.479Z,0.50
2023-01-12T23:12:21.307Z,0.55
2023-01-12T23:17:26.412Z,0.50
2023-01-12T23:22:31.064Z,0.60
2023-01-12T23:27:33.655Z,0.68
2023-01-12T23:32:35.404Z,0.57
2023-01-12T23:37:37.189Z,0.40
2023-01-12T23:42:38.947Z,0.40
2023-01-12T23:47:40.890Z,0.50
2023-01-12T23:52:42.673Z,0.50
2023-01-12T23:57:47.341Z,0.50
